This is the latest recevied weather packets stored in our database for station/object KM4KBD. If no packets are shown the sender has not sent any weather packets the latest 1 day(s).
| Time | Temp. | Humidity | Pressure | Rain* | Wind** | Luminosity | Snow |
|---|---|---|---|---|---|---|---|
| 1778108218 | 15° C | 82% | 1018.1 hPa | 0 mm | - | 36 W/m² | - |
| 1778107308 | 15° C | 80% | 1019.5 hPa | 0 mm | - | 17 W/m² | - |
| 1778104881 | 15.56° C | 74% | 1018.9 hPa | 0 mm | - | 71 W/m² | - |
| 1778103668 | 15.56° C | 75% | 1018.7 hPa | 0 mm | - | 112 W/m² | - |
| 1778103366 | 15.56° C | 76% | 1019 hPa | 0 mm | - | 80 W/m² | - |
| 1778102760 | 15.56° C | 75% | 1019 hPa | 0 mm | - | 52 W/m² | - |
| 1778100938 | 16.11° C | 72% | 1018.5 hPa | 0 mm | - | 91 W/m² | - |
| 1778100633 | 16.11° C | 72% | 1018.4 hPa | 0 mm | - | 138 W/m² | - |
| 1778100028 | 16.67° C | 73% | 1018.1 hPa | 0 mm | - | 190 W/m² | - |
| 1778099120 | 16.67° C | 71% | 1018.7 hPa | 0 mm | - | 179 W/m² | - |
| 1778098816 | 16.11° C | 72% | 1018.7 hPa | 0 mm | - | 210 W/m² | - |
| 1778097301 | 16.11° C | 74% | 1019.1 hPa | 0 mm | - | 215 W/m² | - |
| 1778095178 | 15.56° C | 74% | 1018.7 hPa | 0 mm | - | 207 W/m² | - |
| 1778094875 | 16.11° C | 71% | 1018.8 hPa | 0 mm | - | 232 W/m² | - |
| 1778094268 | 16.11° C | 72% | 1018.7 hPa | 0 mm | - | 259 W/m² | - |
| 1778093965 | 16.11° C | 71% | 1019.1 hPa | 0 mm | - | 307 W/m² | - |
| 1778093056 | 16.11° C | 71% | 1018.9 hPa | 0 mm | - | 313 W/m² | - |
| 1778090935 | 15.56° C | 80% | 1018.8 hPa | 0 mm | - | 249 W/m² | - |
| 1778090631 | 15° C | 79% | 1018.6 hPa | 0 mm | - | 275 W/m² | - |
| 1778090328 | 15° C | 79% | 1018.6 hPa | 0 mm | - | 207 W/m² | - |
| 1778088813 | 14.44° C | 83% | 1018.7 hPa | 0 mm | - | 387 W/m² | - |
| 1778088510 | 14.44° C | 81% | 1018.5 hPa | 0 mm | - | 378 W/m² | - |
| 1778088207 | 14.44° C | 84% | 1018.7 hPa | 0 mm | - | 396 W/m² | - |
| 1778087904 | 13.89° C | 84% | 1018.9 hPa | 0 mm | - | 285 W/m² | - |
| 1778087299 | 13.89° C | 85% | 1019 hPa | 0 mm | - | 235 W/m² | - |
* Rain latest hour (hover to see other rain measurements)
** Current wind speed in m/s (hover to see current wind gust speed)